createdAt,value
2023-04-17T00:04:30.836Z,29.85
2023-04-17T00:09:32.832Z,30.85
2023-04-17T00:14:34.242Z,33.53
2023-04-17T00:19:35.666Z,29.70
2023-04-17T00:24:37.128Z,27.08
2023-04-17T00:29:38.642Z,32.97
2023-04-17T00:34:40.527Z,29.98
2023-04-17T00:39:41.946Z,34.45
2023-04-17T00:44:43.393Z,26.85
2023-04-17T00:49:45.393Z,30.98
2023-04-17T00:54:47.521Z,31.27
2023-04-17T00:59:49.318Z,30.48
2023-04-17T01:04:50.773Z,29.35
2023-04-17T01:09:52.303Z,25.00
2023-04-17T01:14:54.831Z,28.13
2023-04-17T01:19:57.397Z,31.17
2023-04-17T01:24:58.905Z,27.13
2023-04-17T01:30:00.374Z,31.23
2023-04-17T01:35:02.194Z,29.60
2023-04-17T01:40:07.118Z,25.63
2023-04-17T01:45:08.860Z,30.60
2023-04-17T01:50:10.900Z,35.72
2023-04-17T01:55:13.431Z,28.27
2023-04-17T02:00:15.204Z,27.75
2023-04-17T02:05:16.724Z,29.95
2023-04-17T02:10:18.160Z,36.70
2023-04-17T02:15:19.645Z,30.05
2023-04-17T02:20:21.289Z,37.40
2023-04-17T02:25:22.696Z,31.25
2023-04-17T02:30:27.752Z,31.13
2023-04-17T02:35:31.855Z,36.40
2023-04-17T02:40:33.455Z,31.95
2023-04-17T02:45:34.971Z,33.65
2023-04-17T02:50:36.563Z,37.13
2023-04-17T02:55:37.957Z,33.63
2023-04-17T03:00:40.376Z,37.95
2023-04-17T03:05:42.055Z,34.55
2023-04-17T03:10:43.533Z,43.90
2023-04-17T03:15:44.928Z,39.50
2023-04-17T03:20:46.600Z,41.80
2023-04-17T03:25:48.535Z,38.22
2023-04-17T03:30:51.119Z,43.47
2023-04-17T03:35:52.751Z,40.97
2023-04-17T03:40:54.410Z,43.90
2023-04-17T03:45:55.840Z,42.58
2023-04-17T03:50:57.341Z,39.67
2023-04-17T03:56:01.128Z,37.30
2023-04-17T04:01:02.906Z,42.00
2023-04-17T04:06:04.596Z,33.53
2023-04-17T04:11:06.053Z,36.47
2023-04-17T04:16:08.198Z,36.90
2023-04-17T04:21:12.090Z,37.83
2023-04-17T04:26:13.585Z,39.95
2023-04-17T04:31:18.585Z,40.00
2023-04-17T04:36:20.495Z,40.13
2023-04-17T04:41:25.181Z,37.70
2023-04-17T04:46:27.551Z,36.88
2023-04-17T04:51:29.612Z,32.28
2023-04-17T04:56:32.920Z,33.60
2023-04-17T05:01:36.133Z,33.45
2023-04-17T05:06:37.735Z,34.50
2023-04-17T05:11:39.176Z,34.83
2023-04-17T05:16:41.390Z,38.38
2023-04-17T05:21:43.018Z,40.15
2023-04-17T05:26:44.498Z,37.78
2023-04-17T05:31:46.045Z,37.88
2023-04-17T05:36:47.839Z,33.30
2023-04-17T05:41:49.547Z,36.88
2023-04-17T05:46:51.266Z,35.17
2023-04-17T05:51:53.232Z,33.95
2023-04-17T05:56:54.719Z,36.90
2023-04-17T06:01:56.247Z,35.25
2023-04-17T06:06:57.740Z,36.88
2023-04-17T06:11:59.789Z,40.25
2023-04-17T06:17:01.472Z,38.80
2023-04-17T06:22:03.259Z,39.30
2023-04-17T06:27:04.751Z,44.25
2023-04-17T06:32:06.489Z,37.55
2023-04-17T06:37:08.053Z,35.63
2023-04-17T06:42:09.435Z,41.53
2023-04-17T06:47:10.886Z,38.60
2023-04-17T06:52:12.328Z,39.28
2023-04-17T06:57:13.817Z,39.97
2023-04-17T07:02:15.412Z,38.90
2023-04-17T07:07:17.017Z,39.38
2023-04-17T07:12:18.398Z,45.88
2023-04-17T07:17:19.990Z,32.03
2023-04-17T07:22:21.633Z,38.90
2023-04-17T07:27:23.173Z,43.20
2023-04-17T07:32:24.734Z,46.22
2023-04-17T07:37:26.331Z,47.08
2023-04-17T07:42:29.371Z,41.17
2023-04-17T07:47:31.588Z,45.10
2023-04-17T07:52:33.143Z,44.05
2023-04-17T07:57:34.569Z,38.55
2023-04-17T08:02:36.383Z,44.00
2023-04-17T08:07:37.975Z,38.30
2023-04-17T08:12:39.792Z,45.03
2023-04-17T08:17:41.309Z,40.83
2023-04-17T08:22:45.973Z,41.65
2023-04-17T08:27:47.634Z,47.10
2023-04-17T08:32:50.743Z,46.67
2023-04-17T08:37:52.270Z,39.75
2023-04-17T08:42:54.414Z,37.10
2023-04-17T08:47:55.934Z,40.97
2023-04-17T08:52:57.372Z,38.92
2023-04-17T08:58:01.126Z,41.65
2023-04-17T09:03:11.693Z,41.90
2023-04-17T09:08:16.024Z,43.80
2023-04-17T09:13:19.764Z,38.15
2023-04-17T09:18:24.693Z,42.67
2023-04-17T09:23:27.737Z,34.75
2023-04-17T09:28:30.099Z,40.28
2023-04-17T09:33:31.573Z,36.83
2023-04-17T09:38:37.989Z,34.78
2023-04-17T09:43:43.323Z,34.10
2023-04-17T09:48:46.405Z,39.13
2023-04-17T09:53:49.159Z,36.65
2023-04-17T09:58:51.755Z,30.48
2023-04-17T10:03:53.495Z,31.15
2023-04-17T10:08:55.254Z,30.13
2023-04-17T10:14:16.460Z,33.33
2023-04-17T10:19:25.153Z,26.50
2023-04-17T10:24:26.997Z,25.77
2023-04-17T10:29:57.292Z,21.40
2023-04-17T10:35:01.327Z,20.95
2023-04-17T10:40:02.934Z,23.00
2023-04-17T10:45:18.983Z,23.60
2023-04-17T10:50:28.096Z,28.17
2023-04-17T10:55:30.285Z,21.70
2023-04-17T11:00:39.307Z,24.10
2023-04-17T11:05:45.373Z,20.17
2023-04-17T11:10:46.799Z,22.65
2023-04-17T11:15:50.126Z,19.90
2023-04-17T11:20:52.406Z,17.52
2023-04-17T11:25:53.852Z,19.63
2023-04-17T11:30:55.306Z,20.30
2023-04-17T11:35:56.856Z,17.63
2023-04-17T11:41:00.452Z,19.40
2023-04-17T11:46:02.039Z,19.70
2023-04-17T11:51:06.242Z,23.00
2023-04-17T11:56:15.266Z,16.77
2023-04-17T12:01:17.966Z,20.40
2023-04-17T12:06:20.268Z,17.77
2023-04-17T12:11:32.913Z,18.25
2023-04-17T12:16:34.680Z,15.05
2023-04-17T12:21:36.109Z,17.33
2023-04-17T12:26:47.456Z,14.40
2023-04-17T12:31:48.892Z,13.40
2023-04-17T12:36:51.007Z,15.65
2023-04-17T12:41:52.394Z,13.13
2023-04-17T12:46:53.799Z,12.18
2023-04-17T12:51:55.206Z,15.38
2023-04-17T12:56:57.645Z,13.73
2023-04-17T13:01:59.184Z,11.27
2023-04-17T13:07:00.719Z,14.93
2023-04-17T13:12:02.424Z,13.10
2023-04-17T13:17:04.630Z,10.77
2023-04-17T13:22:07.405Z,13.38
2023-04-17T13:27:09.848Z,12.88
2023-04-17T13:32:11.267Z,15.18
2023-04-17T13:37:14.528Z,18.15
2023-04-17T13:42:16.768Z,12.90
2023-04-17T13:47:18.180Z,15.13
2023-04-17T13:52:19.716Z,11.27
2023-04-17T13:57:21.346Z,11.48
2023-04-17T14:02:23.060Z,10.48
2023-04-17T14:07:24.850Z,12.07
2023-04-17T14:12:26.312Z,11.15
2023-04-17T14:17:28.286Z,12.45
2023-04-17T14:22:29.742Z,16.25
2023-04-17T14:27:31.315Z,9.93
2023-04-17T14:32:32.892Z,11.85
2023-04-17T14:37:34.554Z,12.50
2023-04-17T14:42:47.339Z,15.00
2023-04-17T14:47:54.948Z,11.20
2023-04-17T14:52:56.412Z,11.40
2023-04-17T14:57:57.820Z,13.48
2023-04-17T15:02:59.490Z,10.95
2023-04-17T15:08:01.080Z,10.82
2023-04-17T15:13:02.886Z,11.23
2023-04-17T15:18:04.379Z,11.27
2023-04-17T15:23:05.788Z,11.32
2023-04-17T15:28:07.670Z,11.35
2023-04-17T15:33:10.257Z,12.45
2023-04-17T15:38:12.101Z,11.93
2023-04-17T15:43:13.613Z,10.00
2023-04-17T15:48:15.876Z,12.07
2023-04-17T15:53:17.282Z,11.55
2023-04-17T15:58:18.712Z,11.40
2023-04-17T16:03:21.717Z,13.68
2023-04-17T16:08:23.429Z,16.00
2023-04-17T16:13:27.578Z,11.13
2023-04-17T16:18:28.973Z,11.70
2023-04-17T16:23:30.392Z,10.10
2023-04-17T16:28:32.475Z,10.25
2023-04-17T16:33:34.043Z,11.55
2023-04-17T16:38:35.736Z,12.32
2023-04-17T16:43:37.252Z,13.68
2023-04-17T16:48:38.745Z,12.68
2023-04-17T16:53:41.226Z,11.52
2023-04-17T16:58:42.640Z,8.73
2023-04-17T17:03:44.954Z,9.88
2023-04-17T17:08:46.862Z,10.30
2023-04-17T17:13:49.762Z,10.30
2023-04-17T17:18:51.417Z,8.80
2023-04-17T17:23:52.824Z,8.52
2023-04-17T17:28:55.398Z,9.48
2023-04-17T17:33:57.816Z,11.73
2023-04-17T17:39:00.410Z,12.02
2023-04-17T17:44:02.021Z,10.15
2023-04-17T17:49:04.817Z,13.55
2023-04-17T17:54:06.435Z,8.65
2023-04-17T17:59:10.661Z,10.20
2023-04-17T18:04:13.510Z,12.55
2023-04-17T18:09:18.479Z,12.27
2023-04-17T18:14:24.031Z,9.65
2023-04-17T18:19:27.082Z,17.00
2023-04-17T18:24:28.763Z,7.13
2023-04-17T18:29:30.569Z,8.15
2023-04-17T18:34:32.101Z,8.65
2023-04-17T18:39:36.685Z,11.60
2023-04-17T18:44:38.728Z,8.88
2023-04-17T18:49:43.399Z,7.20
2023-04-17T18:54:47.279Z,9.40
2023-04-17T18:59:48.856Z,7.30
2023-04-17T19:04:50.471Z,9.82
2023-04-17T19:09:51.993Z,8.82
2023-04-17T19:14:57.224Z,9.70
2023-04-17T19:19:58.689Z,7.55
2023-04-17T19:25:00.286Z,8.65
2023-04-17T19:30:03.918Z,9.07
2023-04-17T19:35:05.950Z,11.38
2023-04-17T19:40:21.320Z,14.93
2023-04-17T19:45:25.547Z,8.45
2023-04-17T19:50:28.863Z,8.43
2023-04-17T19:55:30.358Z,8.35
2023-04-17T20:00:34.437Z,10.77
2023-04-17T20:05:37.264Z,5.75
2023-04-17T20:10:38.735Z,6.32
2023-04-17T20:15:40.964Z,8.65
2023-04-17T20:20:42.511Z,5.85
2023-04-17T20:25:45.919Z,6.80
2023-04-17T20:30:47.383Z,6.95
2023-04-17T20:35:51.975Z,7.60
2023-04-17T20:40:53.483Z,6.47
2023-04-17T20:45:54.981Z,5.28
2023-04-17T20:50:56.866Z,6.68
2023-04-17T20:55:58.350Z,4.90
2023-04-17T21:01:01.838Z,8.20
2023-04-17T21:06:03.590Z,7.45
2023-04-17T21:11:05.172Z,9.93
2023-04-17T21:16:10.519Z,9.57
2023-04-17T21:21:12.078Z,8.45
2023-04-17T21:26:13.548Z,7.35
2023-04-17T21:31:15.455Z,8.35
2023-04-17T21:36:17.111Z,11.65
2023-04-17T21:41:18.590Z,10.52
2023-04-17T21:46:20.113Z,12.60
2023-04-17T21:51:22.402Z,9.82
2023-04-17T21:56:24.486Z,12.90
2023-04-17T22:01:26.131Z,12.77
2023-04-17T22:06:28.935Z,12.75
2023-04-17T22:11:32.001Z,14.30
2023-04-17T22:16:35.093Z,13.23
2023-04-17T22:21:36.527Z,18.50
2023-04-17T22:26:37.943Z,17.35
2023-04-17T22:31:40.497Z,19.13
2023-04-17T22:36:41.862Z,20.83
2023-04-17T22:41:43.386Z,15.30
2023-04-17T22:46:44.927Z,18.65
2023-04-17T22:51:47.669Z,18.10
2023-04-17T22:56:49.083Z,16.92
2023-04-17T23:01:50.636Z,19.92
2023-04-17T23:06:52.079Z,22.17
2023-04-17T23:11:53.528Z,15.27
2023-04-17T23:16:55.029Z,18.63
2023-04-17T23:21:56.443Z,18.10
2023-04-17T23:26:57.924Z,20.55
2023-04-17T23:31:59.404Z,18.38
2023-04-17T23:37:02.508Z,14.27
2023-04-17T23:42:07.305Z,18.80
2023-04-17T23:47:09.320Z,13.90
2023-04-17T23:52:10.760Z,11.70
2023-04-17T23:57:12.221Z,13.32
